LGAL/AXD METAR and TAF weather

Enter ICAO airport designator
Station Type Date Time Source
LGAL METAR 2020/01/28 04:50 UTC NOAA

LGAL 280450Z 00000KT 9999 FEW010 SCT025 08/07 Q1013


Station Type Date Time Source
LGAL Decoded METAR 2020/01/28 04:50 UTC NOAA

Alexandroupoli Airport , Greece (LGAL) 40-51N 025-55E 3M
Jan 27, 2020 - 11:50 PM EST / 2020.01.28 0450 UTC
Wind: Calm:0
Visibility: greater than 7 mile(s):0
Sky conditions: partly cloudy
Temperature: 46 F (8 C)
Dew Point: 44 F (7 C)
Relative Humidity: 93%
Pressure (altimeter): 29.91 in. Hg (1013 hPa)
ob: LGAL 280450Z 00000KT 9999 FEW010 SCT025 08/07 Q1013
cycle: 5

Station Type Date Time Source
LGAL TAF 2012/09/21 03:06 UTC NOAA

TAF TAF LGAL 210200Z 2103/2115 03012G22KT 9999 FEW020 SCT070 PROB30
TEMPO 2103/2106 6000 RA SCT015 BKN030 PROB30

Example: see airport list